createdAt,value
2017-08-09T00:00:31.960Z,0
2017-08-09T00:01:31.923Z,0
2017-08-09T00:02:32.485Z,0
2017-08-09T00:03:32.385Z,0
2017-08-09T00:04:32.225Z,0
2017-08-09T00:05:32.225Z,0
2017-08-09T00:06:32.212Z,0
2017-08-09T00:07:32.370Z,0
2017-08-09T00:08:32.316Z,0
2017-08-09T00:09:31.896Z,0
2017-08-09T00:10:32.206Z,0
2017-08-09T00:11:31.916Z,0
2017-08-09T00:12:31.790Z,0
2017-08-09T00:13:32.244Z,0
2017-08-09T00:14:32.191Z,0
2017-08-09T00:15:32.338Z,0
2017-08-09T00:16:31.880Z,0
2017-08-09T00:17:32.285Z,0
2017-08-09T00:18:32.332Z,0
2017-08-09T00:19:32.179Z,0
2017-08-09T00:20:32.321Z,0
2017-08-09T00:21:31.860Z,0
2017-08-09T00:22:32.179Z,0
2017-08-09T00:23:32.163Z,0
2017-08-09T00:24:32.260Z,0
2017-08-09T00:25:32.161Z,0
2017-08-09T00:26:31.844Z,0
2017-08-09T00:27:31.839Z,0
2017-08-09T00:28:32.253Z,0
2017-08-09T00:29:32.248Z,0
2017-08-09T00:30:31.935Z,0
2017-08-09T00:31:31.828Z,0
2017-08-09T00:32:31.527Z,0
2017-08-09T00:33:31.926Z,0
2017-08-09T00:34:32.234Z,0
2017-08-09T00:35:32.129Z,0
2017-08-09T00:36:32.122Z,0
2017-08-09T00:37:32.292Z,0
2017-08-09T00:38:32.225Z,0
2017-08-09T00:39:32.114Z,0
2017-08-09T00:40:31.926Z,0
2017-08-09T00:41:31.798Z,0
2017-08-09T00:42:31.894Z,0
2017-08-09T00:43:32.206Z,0
2017-08-09T00:44:31.277Z,0
2017-08-09T00:45:31.585Z,0
2017-08-09T00:46:32.182Z,0
2017-08-09T00:47:32.086Z,0
2017-08-09T00:48:32.027Z,0
2017-08-09T00:49:31.461Z,0
2017-08-09T00:50:32.190Z,0
2017-08-09T00:51:31.462Z,0
2017-08-09T00:52:32.062Z,0
2017-08-09T00:53:31.549Z,0
2017-08-09T00:54:31.604Z,0
2017-08-09T00:55:32.063Z,0
2017-08-09T00:56:31.444Z,0
2017-08-09T00:57:32.060Z,0
2017-08-09T00:58:32.244Z,0
2017-08-09T00:59:31.849Z,0
2017-08-09T01:00:31.428Z,0
2017-08-09T01:01:32.143Z,0
2017-08-09T01:02:31.425Z,0
2017-08-09T01:03:32.036Z,0
2017-08-09T01:04:31.109Z,0
2017-08-09T01:05:31.668Z,0
2017-08-09T01:06:31.204Z,0
2017-08-09T01:07:31.412Z,0
2017-08-09T01:08:31.418Z,0
2017-08-09T01:09:32.018Z,0
2017-08-09T01:10:32.016Z,0
2017-08-09T01:11:31.614Z,0
2017-08-09T01:12:31.800Z,0
2017-08-09T01:13:31.700Z,0
2017-08-09T01:14:32.003Z,0
2017-08-09T01:15:31.999Z,0
2017-08-09T01:16:31.996Z,0
2017-08-09T01:17:32.339Z,0
2017-08-09T01:18:31.371Z,0
2017-08-09T01:19:31.681Z,0
2017-08-09T01:20:31.992Z,0
2017-08-09T01:21:31.974Z,0
2017-08-09T01:22:31.819Z,0
2017-08-09T01:23:32.071Z,0
2017-08-09T01:24:31.352Z,0
2017-08-09T01:25:32.066Z,0
2017-08-09T01:26:31.957Z,0
2017-08-09T01:27:31.805Z,0
2017-08-09T01:28:31.954Z,0
2017-08-09T01:29:31.958Z,0
2017-08-09T01:30:31.642Z,0
2017-08-09T01:31:32.047Z,0
2017-08-09T01:32:32.043Z,0
2017-08-09T01:33:31.943Z,0
2017-08-09T01:34:32.046Z,0
2017-08-09T01:35:31.936Z,0
2017-08-09T01:36:31.926Z,0
2017-08-09T01:37:31.935Z,0
2017-08-09T01:38:31.620Z,0
2017-08-09T01:39:32.122Z,0
2017-08-09T01:40:31.924Z,0
2017-08-09T01:41:31.711Z,0
2017-08-09T01:42:32.013Z,0
2017-08-09T01:43:31.910Z,0
2017-08-09T01:44:31.597Z,0
2017-08-09T01:45:31.592Z,0
2017-08-09T01:46:32.099Z,0
2017-08-09T01:47:31.993Z,0
2017-08-09T01:48:31.890Z,0
2017-08-09T01:49:31.691Z,0
2017-08-09T01:50:31.982Z,0
2017-08-09T01:51:32.030Z,0
2017-08-09T01:52:31.569Z,0
2017-08-09T01:53:31.776Z,0
2017-08-09T01:54:31.974Z,0
2017-08-09T01:55:31.561Z,0
2017-08-09T01:56:31.559Z,0
2017-08-09T01:57:31.557Z,0
2017-08-09T01:58:31.657Z,0
2017-08-09T01:59:31.748Z,0
2017-08-09T02:00:31.542Z,0
2017-08-09T02:01:31.546Z,0
2017-08-09T02:02:31.536Z,0
2017-08-09T02:03:31.845Z,0
2017-08-09T02:04:31.539Z,0
2017-08-09T02:05:31.532Z,0
2017-08-09T02:06:31.526Z,0
2017-08-09T02:07:31.543Z,0
2017-08-09T02:08:31.213Z,0
2017-08-09T02:09:31.518Z,0
2017-08-09T02:10:31.210Z,0
2017-08-09T02:11:31.531Z,0
2017-08-09T02:12:31.657Z,0
2017-08-09T02:13:31.507Z,0
2017-08-09T02:14:31.519Z,0
2017-08-09T02:15:31.496Z,0
2017-08-09T02:16:31.489Z,0
2017-08-09T02:17:31.588Z,0
2017-08-09T02:18:31.188Z,0
2017-08-09T02:19:31.490Z,0
2017-08-09T02:20:31.812Z,0
2017-08-09T02:21:31.576Z,0
2017-08-09T02:22:31.886Z,0
2017-08-09T02:23:31.475Z,0
2017-08-09T02:24:31.772Z,0
2017-08-09T02:25:31.566Z,0
2017-08-09T02:26:31.611Z,0
2017-08-09T02:27:31.772Z,0
2017-08-09T02:28:31.764Z,0
2017-08-09T02:29:31.453Z,0
2017-08-09T02:30:31.453Z,0
2017-08-09T02:31:31.561Z,0
2017-08-09T02:32:31.762Z,0
2017-08-09T02:33:31.747Z,0
2017-08-09T02:34:31.764Z,0
2017-08-09T02:35:31.761Z,0
2017-08-09T02:36:31.542Z,0
2017-08-09T02:37:31.524Z,0
2017-08-09T02:38:31.729Z,0
2017-08-09T02:39:31.729Z,0
2017-08-09T02:40:31.514Z,0
2017-08-09T02:41:31.562Z,0
2017-08-09T02:42:31.717Z,0
2017-08-09T02:43:31.661Z,0
2017-08-09T02:44:31.412Z,0
2017-08-09T02:45:31.705Z,0
2017-08-09T02:46:31.704Z,0
2017-08-09T02:47:31.820Z,0
2017-08-09T02:48:31.692Z,0
2017-08-09T02:49:31.398Z,0
2017-08-09T02:50:31.709Z,0
2017-08-09T02:51:31.688Z,0
2017-08-09T02:52:31.689Z,0
2017-08-09T02:53:31.686Z,0
2017-08-09T02:54:31.771Z,0
2017-08-09T02:55:31.680Z,0
2017-08-09T02:56:31.668Z,0
2017-08-09T02:57:31.516Z,0
2017-08-09T02:58:31.660Z,0
2017-08-09T02:59:31.658Z,0
2017-08-09T03:00:31.656Z,0
2017-08-09T03:01:31.750Z,0
2017-08-09T03:02:31.753Z,0
2017-08-09T03:03:31.336Z,0
2017-08-09T03:04:31.742Z,0
2017-08-09T03:05:31.638Z,0
2017-08-09T03:06:31.670Z,0
2017-08-09T03:07:31.630Z,0
2017-08-09T03:08:31.779Z,0
2017-08-09T03:09:31.629Z,0
2017-08-09T03:10:31.727Z,0
2017-08-09T03:11:31.618Z,0
2017-08-09T03:12:31.618Z,0
2017-08-09T03:13:31.613Z,0
2017-08-09T03:14:31.708Z,0
2017-08-09T03:15:31.603Z,0
2017-08-09T03:16:31.612Z,0
2017-08-09T03:17:31.699Z,0
2017-08-09T03:18:31.602Z,0
2017-08-09T03:19:31.600Z,0
2017-08-09T03:20:31.896Z,0
2017-08-09T03:21:31.588Z,0
2017-08-09T03:22:31.279Z,0
2017-08-09T03:23:31.279Z,0
2017-08-09T03:24:31.587Z,0
2017-08-09T03:25:31.579Z,0
2017-08-09T03:26:31.568Z,0
2017-08-09T03:27:31.566Z,0
2017-08-09T03:28:31.580Z,0
2017-08-09T03:29:31.559Z,0
2017-08-09T03:30:31.408Z,0
2017-08-09T03:31:31.556Z,0
2017-08-09T03:32:31.652Z,0
2017-08-09T03:33:31.693Z,0
2017-08-09T03:34:31.545Z,0
2017-08-09T03:35:31.545Z,0
2017-08-09T03:36:31.233Z,0
2017-08-09T03:37:31.541Z,0
2017-08-09T03:38:31.391Z,0
2017-08-09T03:39:31.629Z,0
2017-08-09T03:40:31.520Z,0
2017-08-09T03:41:31.466Z,0
2017-08-09T03:42:31.512Z,0
2017-08-09T03:43:31.510Z,0
2017-08-09T03:44:31.509Z,0
2017-08-09T03:45:31.510Z,0
2017-08-09T03:46:31.541Z,0
2017-08-09T03:47:31.496Z,0
2017-08-09T03:48:31.497Z,0
2017-08-09T03:49:31.491Z,0
2017-08-09T03:50:31.637Z,0
2017-08-09T03:51:31.480Z,0
2017-08-09T03:52:31.580Z,0
2017-08-09T03:53:31.173Z,0
2017-08-09T03:54:31.169Z,0
2017-08-09T03:55:31.471Z,0
2017-08-09T03:56:31.164Z,0
2017-08-09T03:57:31.718Z,0
2017-08-09T03:58:31.460Z,0
2017-08-09T03:59:31.468Z,0
2017-08-09T04:00:31.553Z,0
2017-08-09T04:01:31.145Z,0
2017-08-09T04:02:31.443Z,0
2017-08-09T04:03:31.241Z,0
2017-08-09T04:04:31.445Z,0
2017-08-09T04:05:31.438Z,0
2017-08-09T04:06:31.428Z,0
2017-08-09T04:07:31.538Z,0
2017-08-09T04:08:31.424Z,0
2017-08-09T04:09:31.120Z,0
2017-08-09T04:10:31.218Z,0
2017-08-09T04:11:31.109Z,0
2017-08-09T04:12:31.417Z,0
2017-08-09T04:13:31.411Z,0
2017-08-09T04:14:31.096Z,0
2017-08-09T04:15:31.402Z,0
2017-08-09T04:16:31.104Z,0
2017-08-09T04:17:31.091Z,0
2017-08-09T04:18:31.079Z,0
2017-08-09T04:19:31.646Z,0
2017-08-09T04:20:31.076Z,0
2017-08-09T04:21:31.178Z,0
2017-08-09T04:22:31.076Z,0
2017-08-09T04:23:31.375Z,0
2017-08-09T04:24:31.373Z,0
2017-08-09T04:25:31.369Z,5
2017-08-09T04:26:31.366Z,5
2017-08-09T04:27:31.361Z,5
2017-08-09T04:28:31.053Z,5
2017-08-09T04:29:31.052Z,5
2017-08-09T04:30:31.449Z,5
2017-08-09T04:31:30.737Z,5
2017-08-09T04:32:31.351Z,5
2017-08-09T04:33:31.341Z,10
2017-08-09T04:34:31.130Z,10
2017-08-09T04:35:31.129Z,10
2017-08-09T04:36:30.728Z,10
2017-08-09T04:37:31.121Z,10
2017-08-09T04:38:31.355Z,10
2017-08-09T04:39:31.321Z,10
2017-08-09T04:40:31.010Z,10
2017-08-09T04:41:31.311Z,15
2017-08-09T04:42:31.156Z,15
2017-08-09T04:43:31.000Z,15
2017-08-09T04:44:31.609Z,15
2017-08-09T04:45:31.301Z,20
2017-08-09T04:46:31.292Z,25
2017-08-09T04:47:30.983Z,30
2017-08-09T04:48:31.318Z,30
2017-08-09T04:49:31.156Z,35
2017-08-09T04:50:30.975Z,40
2017-08-09T04:51:30.972Z,30
2017-08-09T04:52:31.477Z,25
2017-08-09T04:53:30.964Z,40
2017-08-09T04:54:30.655Z,45
2017-08-09T04:55:30.975Z,45
2017-08-09T04:56:30.963Z,45
2017-08-09T04:57:31.412Z,40
2017-08-09T04:58:31.366Z,50
2017-08-09T04:59:31.351Z,50
2017-08-09T05:00:30.941Z,55
2017-08-09T05:01:31.253Z,55
2017-08-09T05:02:30.946Z,40
2017-08-09T05:03:31.085Z,55
2017-08-09T05:04:31.254Z,65
2017-08-09T05:05:30.929Z,60
2017-08-09T05:06:31.234Z,40
2017-08-09T05:07:30.714Z,50
2017-08-09T05:08:31.383Z,40
2017-08-09T05:09:31.230Z,30
2017-08-09T05:10:31.381Z,25
2017-08-09T05:11:31.222Z,25
2017-08-09T05:12:30.907Z,25
2017-08-09T05:13:31.008Z,25
2017-08-09T05:14:30.905Z,25
2017-08-09T05:15:31.053Z,30
2017-08-09T05:16:30.894Z,30
2017-08-09T05:17:31.204Z,35
2017-08-09T05:18:31.396Z,35
2017-08-09T05:19:30.986Z,40
2017-08-09T05:20:30.881Z,45
2017-08-09T05:21:31.341Z,45
2017-08-09T05:22:30.878Z,50
2017-08-09T05:23:31.328Z,55
2017-08-09T05:24:31.190Z,60
2017-08-09T05:25:31.183Z,70
2017-08-09T05:26:30.873Z,70
2017-08-09T05:27:30.859Z,75
2017-08-09T05:28:31.172Z,70
2017-08-09T05:29:31.174Z,70
2017-08-09T05:30:31.155Z,70
2017-08-09T05:31:31.157Z,85
2017-08-09T05:32:31.158Z,120
2017-08-09T05:33:31.146Z,100
2017-08-09T05:34:31.158Z,90
2017-08-09T05:35:30.530Z,90
2017-08-09T05:36:30.526Z,90
2017-08-09T05:37:31.135Z,105
2017-08-09T05:38:31.132Z,215
2017-08-09T05:39:31.137Z,305
2017-08-09T05:40:31.130Z,310
2017-08-09T05:41:31.121Z,120
2017-08-09T05:42:30.511Z,110
2017-08-09T05:43:31.132Z,160
2017-08-09T05:44:30.505Z,90
2017-08-09T05:45:31.125Z,85
2017-08-09T05:46:31.216Z,85
2017-08-09T05:47:31.115Z,85
2017-08-09T05:48:30.800Z,85
2017-08-09T05:49:31.261Z,80
2017-08-09T05:50:30.490Z,70
2017-08-09T05:51:31.100Z,65
2017-08-09T05:52:30.796Z,70
2017-08-09T05:53:31.100Z,65
2017-08-09T05:54:31.110Z,65
2017-08-09T05:55:31.243Z,60
2017-08-09T05:56:30.779Z,60
2017-08-09T05:57:31.087Z,60
2017-08-09T05:58:31.082Z,60
2017-08-09T05:59:31.094Z,65
2017-08-09T06:00:31.076Z,65
2017-08-09T06:01:31.225Z,65
2017-08-09T06:02:30.767Z,75
2017-08-09T06:03:30.766Z,90
2017-08-09T06:04:30.767Z,95
2017-08-09T06:05:31.067Z,95
2017-08-09T06:06:31.215Z,80
2017-08-09T06:07:30.757Z,65
2017-08-09T06:08:31.308Z,70
2017-08-09T06:09:31.062Z,70
2017-08-09T06:10:31.059Z,70
2017-08-09T06:11:31.052Z,75
2017-08-09T06:12:30.741Z,90
2017-08-09T06:13:30.842Z,100
2017-08-09T06:14:31.046Z,110
2017-08-09T06:15:31.138Z,110
2017-08-09T06:16:31.040Z,105
2017-08-09T06:17:31.288Z,95
2017-08-09T06:18:31.033Z,80
2017-08-09T06:19:30.760Z,75
2017-08-09T06:20:30.730Z,80
2017-08-09T06:21:30.715Z,85
2017-08-09T06:22:31.168Z,90
2017-08-09T06:23:30.964Z,90
2017-08-09T06:24:31.025Z,95
2017-08-09T06:25:30.412Z,115
2017-08-09T06:26:30.719Z,135
2017-08-09T06:27:30.499Z,165
2017-08-09T06:28:30.389Z,195
2017-08-09T06:29:30.488Z,155
2017-08-09T06:30:30.798Z,135
2017-08-09T06:31:30.999Z,120
2017-08-09T06:32:31.145Z,110
2017-08-09T06:33:30.689Z,105
2017-08-09T06:34:31.092Z,110
2017-08-09T06:35:30.370Z,130
2017-08-09T06:36:30.983Z,150
2017-08-09T06:37:30.778Z,175
2017-08-09T06:38:30.988Z,175
2017-08-09T06:39:31.128Z,170
2017-08-09T06:40:30.816Z,145
2017-08-09T06:41:30.978Z,130
2017-08-09T06:42:31.068Z,130
2017-08-09T06:43:30.977Z,125
2017-08-09T06:44:30.970Z,120
2017-08-09T06:45:31.067Z,135
2017-08-09T06:46:30.966Z,160
2017-08-09T06:47:30.753Z,160
2017-08-09T06:48:30.653Z,145
2017-08-09T06:49:30.647Z,150
2017-08-09T06:50:30.746Z,135
2017-08-09T06:51:30.950Z,110
2017-08-09T06:52:30.953Z,110
2017-08-09T06:53:30.738Z,120
2017-08-09T06:54:30.425Z,100
2017-08-09T06:55:30.943Z,95
2017-08-09T06:56:30.939Z,105
2017-08-09T06:57:30.824Z,100
2017-08-09T06:58:31.037Z,110
2017-08-09T06:59:30.945Z,160
2017-08-09T07:00:30.932Z,150
2017-08-09T07:01:30.930Z,370
2017-08-09T07:02:30.928Z,220
2017-08-09T07:03:31.033Z,140
2017-08-09T07:04:31.072Z,120
2017-08-09T07:05:31.032Z,110
2017-08-09T07:06:30.920Z,105
2017-08-09T07:07:31.014Z,90
2017-08-09T07:08:30.916Z,80
2017-08-09T07:09:30.398Z,80
2017-08-09T07:10:30.920Z,70
2017-08-09T07:11:30.910Z,65
2017-08-09T07:12:30.902Z,70
2017-08-09T07:13:30.907Z,75
2017-08-09T07:14:30.899Z,75
2017-08-09T07:15:30.743Z,75
2017-08-09T07:16:30.998Z,70
2017-08-09T07:17:30.893Z,65
2017-08-09T07:18:31.096Z,60
2017-08-09T07:19:31.002Z,55
2017-08-09T07:20:30.884Z,60
2017-08-09T07:21:31.029Z,90
2017-08-09T07:22:30.671Z,90
2017-08-09T07:23:30.666Z,80
2017-08-09T07:24:30.870Z,75
2017-08-09T07:25:30.886Z,85
2017-08-09T07:26:30.880Z,95
2017-08-09T07:27:30.877Z,115
2017-08-09T07:28:30.565Z,105
2017-08-09T07:29:30.972Z,90
2017-08-09T07:30:30.802Z,80
2017-08-09T07:31:30.867Z,75
2017-08-09T07:32:30.953Z,90
2017-08-09T07:33:30.863Z,110
2017-08-09T07:34:30.847Z,105
2017-08-09T07:35:30.849Z,100
2017-08-09T07:36:30.841Z,100
2017-08-09T07:37:30.845Z,140
2017-08-09T07:38:30.329Z,160
2017-08-09T07:39:30.842Z,150
2017-08-09T07:40:30.835Z,145
2017-08-09T07:41:31.085Z,135
2017-08-09T07:42:30.827Z,145
2017-08-09T07:43:30.829Z,145
2017-08-09T07:44:30.937Z,155
2017-08-09T07:45:30.825Z,200
2017-08-09T07:46:31.122Z,185
2017-08-09T07:47:30.818Z,180
2017-08-09T07:48:30.510Z,235
2017-08-09T07:49:30.912Z,250
2017-08-09T07:50:30.807Z,155
2017-08-09T07:51:30.911Z,155
2017-08-09T07:52:30.343Z,175
2017-08-09T07:53:30.193Z,165
2017-08-09T07:54:30.806Z,225
2017-08-09T07:55:31.017Z,235
2017-08-09T07:56:30.493Z,225
2017-08-09T07:57:30.381Z,215
2017-08-09T07:58:30.799Z,195
2017-08-09T07:59:30.796Z,190
2017-08-09T08:00:30.483Z,170
2017-08-09T08:01:30.801Z,170
2017-08-09T08:02:31.043Z,170
2017-08-09T08:03:30.793Z,170
2017-08-09T08:04:30.882Z,195
2017-08-09T08:05:30.780Z,180
2017-08-09T08:06:30.982Z,175
2017-08-09T08:07:30.885Z,165
2017-08-09T08:08:30.468Z,145
2017-08-09T08:09:30.774Z,140
2017-08-09T08:10:30.924Z,125
2017-08-09T08:11:30.779Z,125
2017-08-09T08:12:30.466Z,135
2017-08-09T08:13:30.462Z,130
2017-08-09T08:14:30.762Z,120
2017-08-09T08:15:30.252Z,110
2017-08-09T08:16:30.765Z,115
2017-08-09T08:17:30.862Z,145
2017-08-09T08:18:30.866Z,165
2017-08-09T08:19:30.453Z,160
2017-08-09T08:20:30.905Z,145
2017-08-09T08:21:30.761Z,135
2017-08-09T08:22:30.547Z,140
2017-08-09T08:23:30.750Z,155
2017-08-09T08:24:30.849Z,180
2017-08-09T08:25:30.910Z,190
2017-08-09T08:26:30.146Z,195
2017-08-09T08:27:30.458Z,180
2017-08-09T08:28:30.843Z,165
2017-08-09T08:29:30.736Z,160
2017-08-09T08:30:30.120Z,165
2017-08-09T08:31:30.738Z,170
2017-08-09T08:32:30.431Z,170
2017-08-09T08:33:30.736Z,125
2017-08-09T08:34:30.271Z,120
2017-08-09T08:35:30.426Z,125
2017-08-09T08:36:30.736Z,125
2017-08-09T08:37:30.723Z,120
2017-08-09T08:38:30.136Z,125
2017-08-09T08:39:30.726Z,145
2017-08-09T08:40:30.420Z,140
2017-08-09T08:41:30.870Z,130
2017-08-09T08:42:30.878Z,140
2017-08-09T08:43:30.100Z,150
2017-08-09T08:44:30.821Z,150
2017-08-09T08:45:30.710Z,155
2017-08-09T08:46:30.095Z,155
2017-08-09T08:47:30.805Z,135
2017-08-09T08:48:30.198Z,130
2017-08-09T08:49:30.812Z,120
2017-08-09T08:50:30.707Z,115
2017-08-09T08:51:30.091Z,115
2017-08-09T08:52:30.807Z,105
2017-08-09T08:53:30.693Z,100
2017-08-09T08:54:30.848Z,120
2017-08-09T08:55:30.696Z,120
2017-08-09T08:56:30.693Z,130
2017-08-09T08:57:30.793Z,135
2017-08-09T08:58:30.380Z,130
2017-08-09T08:59:30.837Z,125
2017-08-09T09:00:30.220Z,135
2017-08-09T09:01:30.067Z,150
2017-08-09T09:02:30.370Z,150
2017-08-09T09:03:30.468Z,135
2017-08-09T09:04:30.370Z,115
2017-08-09T09:05:30.469Z,95
2017-08-09T09:06:30.675Z,95
2017-08-09T09:07:30.774Z,90
2017-08-09T09:08:30.364Z,85
2017-08-09T09:09:30.057Z,80
2017-08-09T09:10:30.360Z,75
2017-08-09T09:11:30.054Z,75
2017-08-09T09:12:30.359Z,70
2017-08-09T09:13:30.500Z,70
2017-08-09T09:14:30.354Z,70
2017-08-09T09:15:30.348Z,70
2017-08-09T09:16:30.344Z,70
2017-08-09T09:17:30.364Z,65
2017-08-09T09:18:30.186Z,65
2017-08-09T09:19:30.346Z,70
2017-08-09T09:20:30.654Z,70
2017-08-09T09:21:30.342Z,60
2017-08-09T09:22:30.642Z,60
2017-08-09T09:23:30.441Z,60
2017-08-09T09:24:30.428Z,70
2017-08-09T09:25:30.331Z,65
2017-08-09T09:26:30.331Z,70
2017-08-09T09:27:30.473Z,75
2017-08-09T09:28:30.335Z,85
2017-08-09T09:29:30.319Z,75
2017-08-09T09:30:30.323Z,60
2017-08-09T09:31:30.417Z,60
2017-08-09T09:32:30.426Z,60
2017-08-09T09:33:30.315Z,65
2017-08-09T09:34:30.317Z,60
2017-08-09T09:35:30.320Z,60
2017-08-09T09:36:30.101Z,60
2017-08-09T09:37:30.307Z,55
2017-08-09T09:38:30.615Z,55
2017-08-09T09:39:30.614Z,60
2017-08-09T09:40:30.303Z,65
2017-08-09T09:41:30.295Z,70
2017-08-09T09:42:30.385Z,75
2017-08-09T09:43:30.602Z,75
2017-08-09T09:44:30.287Z,70
2017-08-09T09:45:30.596Z,60
2017-08-09T09:46:30.388Z,60
2017-08-09T09:47:30.280Z,60
2017-08-09T09:48:30.280Z,60
2017-08-09T09:49:30.278Z,60
2017-08-09T09:50:30.283Z,55
2017-08-09T09:51:30.266Z,55
2017-08-09T09:52:30.681Z,65
2017-08-09T09:53:30.568Z,65
2017-08-09T09:54:30.264Z,75
2017-08-09T09:55:29.955Z,90
2017-08-09T09:56:30.259Z,100
2017-08-09T09:57:30.374Z,110
2017-08-09T09:58:30.256Z,110
2017-08-09T09:59:30.356Z,100
2017-08-09T10:00:30.555Z,85
2017-08-09T10:01:30.658Z,70
2017-08-09T10:02:29.944Z,70
2017-08-09T10:03:30.249Z,65
2017-08-09T10:04:30.343Z,55
2017-08-09T10:05:30.545Z,50
2017-08-09T10:06:30.548Z,50
2017-08-09T10:07:30.545Z,55
2017-08-09T10:08:30.540Z,60
2017-08-09T10:09:30.540Z,50
2017-08-09T10:10:30.535Z,55
2017-08-09T10:11:29.936Z,50
2017-08-09T10:12:30.529Z,55
2017-08-09T10:13:30.527Z,55
2017-08-09T10:14:30.530Z,60
2017-08-09T10:15:30.521Z,70
2017-08-09T10:16:30.622Z,75
2017-08-09T10:17:30.012Z,65
2017-08-09T10:18:30.361Z,55
2017-08-09T10:19:30.309Z,45
2017-08-09T10:20:30.512Z,55
2017-08-09T10:21:29.896Z,55
2017-08-09T10:22:30.606Z,55
2017-08-09T10:23:30.506Z,60
2017-08-09T10:24:30.652Z,60
2017-08-09T10:25:29.887Z,55
2017-08-09T10:26:30.501Z,50
2017-08-09T10:27:29.978Z,50
2017-08-09T10:28:30.495Z,50
2017-08-09T10:29:30.191Z,50
2017-08-09T10:30:29.878Z,50
2017-08-09T10:31:29.977Z,50
2017-08-09T10:32:30.178Z,55
2017-08-09T10:33:30.175Z,55
2017-08-09T10:34:30.014Z,55
2017-08-09T10:35:30.783Z,50
2017-08-09T10:36:30.183Z,50
2017-08-09T10:37:30.170Z,40
2017-08-09T10:38:29.866Z,50
2017-08-09T10:39:30.476Z,50
2017-08-09T10:40:30.165Z,55
2017-08-09T10:41:30.164Z,55
2017-08-09T10:42:30.463Z,60
2017-08-09T10:43:30.150Z,65
2017-08-09T10:44:29.848Z,65
2017-08-09T10:45:29.841Z,70
2017-08-09T10:46:29.938Z,80
2017-08-09T10:47:30.141Z,70
2017-08-09T10:48:30.449Z,75
2017-08-09T10:49:30.139Z,75
2017-08-09T10:50:29.828Z,70
2017-08-09T10:51:30.133Z,50
2017-08-09T10:52:30.436Z,55
2017-08-09T10:53:30.548Z,50
2017-08-09T10:54:30.123Z,50
2017-08-09T10:55:30.436Z,60
2017-08-09T10:56:29.816Z,60
2017-08-09T10:57:30.424Z,65
2017-08-09T10:58:30.533Z,85
2017-08-09T10:59:29.808Z,105
2017-08-09T11:00:30.418Z,100
2017-08-09T11:01:29.804Z,95
2017-08-09T11:02:30.440Z,85
2017-08-09T11:03:29.788Z,75
2017-08-09T11:04:29.794Z,75
2017-08-09T11:05:29.807Z,70
2017-08-09T11:06:29.890Z,65
2017-08-09T11:07:30.403Z,75
2017-08-09T11:08:30.411Z,65
2017-08-09T11:09:30.089Z,70
2017-08-09T11:10:29.779Z,80
2017-08-09T11:11:30.082Z,85
2017-08-09T11:12:30.489Z,105
2017-08-09T11:13:30.385Z,110
2017-08-09T11:14:29.773Z,125
2017-08-09T11:15:30.079Z,130
2017-08-09T11:16:29.767Z,110
2017-08-09T11:17:30.068Z,105
2017-08-09T11:18:29.862Z,115
2017-08-09T11:19:29.769Z,120
2017-08-09T11:20:29.762Z,100
2017-08-09T11:21:30.374Z,110
2017-08-09T11:22:29.767Z,105
2017-08-09T11:23:30.368Z,95
2017-08-09T11:24:29.750Z,95
2017-08-09T11:25:29.745Z,100
2017-08-09T11:26:30.050Z,125
2017-08-09T11:27:30.361Z,145
2017-08-09T11:28:30.381Z,125
2017-08-09T11:29:30.354Z,110
2017-08-09T11:30:30.502Z,130
2017-08-09T11:31:30.037Z,160
2017-08-09T11:32:29.733Z,130
2017-08-09T11:33:30.345Z,115
2017-08-09T11:34:30.038Z,120
2017-08-09T11:35:30.200Z,130
2017-08-09T11:36:30.184Z,120
2017-08-09T11:37:30.337Z,120
2017-08-09T11:38:30.347Z,120
2017-08-09T11:39:30.331Z,105
2017-08-09T11:40:30.336Z,105
2017-08-09T11:41:30.020Z,100
2017-08-09T11:42:30.432Z,100
2017-08-09T11:43:30.026Z,105
2017-08-09T11:44:30.038Z,110
2017-08-09T11:45:30.041Z,115
2017-08-09T11:46:29.708Z,120
2017-08-09T11:47:30.171Z,130
2017-08-09T11:48:30.316Z,135
2017-08-09T11:49:29.804Z,130
2017-08-09T11:50:30.005Z,125
2017-08-09T11:51:30.005Z,115
2017-08-09T11:52:30.453Z,120
2017-08-09T11:53:30.252Z,120
2017-08-09T11:54:30.306Z,115
2017-08-09T11:55:30.305Z,110
2017-08-09T11:56:29.996Z,105
2017-08-09T11:57:29.995Z,100
2017-08-09T11:58:29.998Z,105
2017-08-09T11:59:30.393Z,110
2017-08-09T12:00:29.990Z,110
2017-08-09T12:01:29.677Z,110
2017-08-09T12:02:29.979Z,110
2017-08-09T12:03:29.826Z,110
2017-08-09T12:04:29.817Z,110
2017-08-09T12:05:30.083Z,105
2017-08-09T12:06:30.280Z,90
2017-08-09T12:07:29.975Z,70
2017-08-09T12:08:29.977Z,55
2017-08-09T12:09:30.122Z,50
2017-08-09T12:10:30.292Z,50
2017-08-09T12:11:29.966Z,45
2017-08-09T12:12:29.915Z,50
2017-08-09T12:13:29.961Z,55
2017-08-09T12:14:29.959Z,50
2017-08-09T12:15:30.280Z,45
2017-08-09T12:16:29.752Z,40
2017-08-09T12:17:29.954Z,40
2017-08-09T12:18:29.952Z,35
2017-08-09T12:19:30.264Z,35
2017-08-09T12:20:30.100Z,40
2017-08-09T12:21:29.951Z,40
2017-08-09T12:22:29.943Z,45
2017-08-09T12:23:30.704Z,50
2017-08-09T12:24:30.399Z,50
2017-08-09T12:25:29.944Z,45
2017-08-09T12:26:29.934Z,45
2017-08-09T12:27:29.939Z,50
2017-08-09T12:28:30.086Z,55
2017-08-09T12:29:30.237Z,60
2017-08-09T12:30:29.928Z,65
2017-08-09T12:31:29.931Z,70
2017-08-09T12:32:30.194Z,70
2017-08-09T12:33:30.335Z,70
2017-08-09T12:34:30.083Z,70
2017-08-09T12:35:29.920Z,65
2017-08-09T12:36:30.333Z,65
2017-08-09T12:37:30.226Z,65
2017-08-09T12:38:29.914Z,65
2017-08-09T12:39:29.910Z,60
2017-08-09T12:40:29.910Z,60
2017-08-09T12:41:29.905Z,60
2017-08-09T12:42:29.906Z,55
2017-08-09T12:43:29.904Z,55
2017-08-09T12:44:30.044Z,65
2017-08-09T12:45:29.899Z,70
2017-08-09T12:46:29.916Z,75
2017-08-09T12:47:29.896Z,80
2017-08-09T12:48:29.884Z,95
2017-08-09T12:49:30.050Z,110
2017-08-09T12:50:29.879Z,130
2017-08-09T12:51:29.883Z,135
2017-08-09T12:52:30.186Z,120
2017-08-09T12:53:29.567Z,105
2017-08-09T12:54:29.873Z,95
2017-08-09T12:55:29.885Z,80
2017-08-09T12:56:29.061Z,70
2017-08-09T12:57:29.867Z,75
2017-08-09T12:58:30.179Z,80
2017-08-09T12:59:30.171Z,80
2017-08-09T13:00:29.953Z,85
2017-08-09T13:01:30.168Z,105
2017-08-09T13:02:30.175Z,110
2017-08-09T13:03:29.958Z,105
2017-08-09T13:04:29.956Z,105
2017-08-09T13:05:30.165Z,105
2017-08-09T13:06:30.154Z,100
2017-08-09T13:07:30.149Z,100
2017-08-09T13:08:30.162Z,95
2017-08-09T13:09:30.161Z,95
2017-08-09T13:10:30.159Z,95
2017-08-09T13:11:30.251Z,90
2017-08-09T13:12:30.147Z,85
2017-08-09T13:13:29.838Z,80
2017-08-09T13:14:30.141Z,85
2017-08-09T13:15:30.136Z,75
2017-08-09T13:16:30.139Z,65
2017-08-09T13:17:30.136Z,55
2017-08-09T13:18:30.134Z,55
2017-08-09T13:19:29.834Z,55
2017-08-09T13:20:30.127Z,60
2017-08-09T13:21:30.283Z,70
2017-08-09T13:22:29.816Z,70
2017-08-09T13:23:29.968Z,75
2017-08-09T13:24:30.120Z,85
2017-08-09T13:25:30.118Z,90
2017-08-09T13:26:29.972Z,95
2017-08-09T13:27:30.439Z,105
2017-08-09T13:28:30.116Z,95
2017-08-09T13:29:29.804Z,85
2017-08-09T13:30:29.811Z,80
2017-08-09T13:31:30.213Z,90
2017-08-09T13:32:29.794Z,110
2017-08-09T13:33:30.105Z,110
2017-08-09T13:34:30.200Z,95
2017-08-09T13:35:29.947Z,75
2017-08-09T13:36:30.097Z,70
2017-08-09T13:37:29.787Z,85
2017-08-09T13:38:30.102Z,95
2017-08-09T13:39:30.091Z,100
2017-08-09T13:40:30.087Z,105
2017-08-09T13:41:30.088Z,100
2017-08-09T13:42:30.083Z,100
2017-08-09T13:43:30.196Z,100
2017-08-09T13:44:30.181Z,100
2017-08-09T13:45:29.460Z,100
2017-08-09T13:46:29.778Z,100
2017-08-09T13:47:29.782Z,100
2017-08-09T13:48:29.863Z,95
2017-08-09T13:49:30.073Z,95
2017-08-09T13:50:30.089Z,95
2017-08-09T13:51:30.061Z,95
2017-08-09T13:52:29.447Z,90
2017-08-09T13:53:29.760Z,90
2017-08-09T13:54:29.751Z,90
2017-08-09T13:55:30.160Z,90
2017-08-09T13:56:30.059Z,90
2017-08-09T13:57:30.061Z,90
2017-08-09T13:58:30.154Z,90
2017-08-09T13:59:30.048Z,90
2017-08-09T14:00:30.196Z,90
2017-08-09T14:01:29.741Z,90
2017-08-09T14:02:30.064Z,90
2017-08-09T14:03:30.034Z,85
2017-08-09T14:04:29.427Z,70
2017-08-09T14:05:29.594Z,80
2017-08-09T14:06:30.186Z,70
2017-08-09T14:07:29.728Z,60
2017-08-09T14:08:30.032Z,70
2017-08-09T14:09:30.131Z,90
2017-08-09T14:10:30.138Z,85
2017-08-09T14:11:30.024Z,75
2017-08-09T14:12:30.121Z,70
2017-08-09T14:13:30.041Z,70
2017-08-09T14:14:30.117Z,55
2017-08-09T14:15:30.020Z,55
2017-08-09T14:16:30.012Z,55
2017-08-09T14:17:29.714Z,55